Time;durP1;ratioP1;P1;durP2;ratioP2;P2;SDS_P1;SDS_P2;PMS_P1;PMS_P2;Temp;Humidity;BMP_temperature;BMP_pressure;BME280_temperature;BME280_humidity;BME280_pressure;Samples;Min_cycle;Max_cycle;Signal;HPM_P1;HPM_P2
2022/04/07 00:01:19;;;;;;;13.98;2.90;;;9.20;99.90;;;;;;5071948;28;20379;-72
2022/04/07 00:03:44;;;;;;;;;;;9.20;99.90;;;;;;5073317;28;20056;-72
2022/04/07 00:06:10;;;;;;;11.52;2.42;;;9.30;99.90;;;;;;5054432;28;19921;-72
2022/04/07 00:08:36;;;;;;;;;;;9.20;99.90;;;;;;5072489;28;20153;-72
2022/04/07 00:11:02;;;;;;;11.02;1.95;;;9.20;99.90;;;;;;5054691;28;19920;-72
2022/04/07 00:13:28;;;;;;;16.60;3.25;;;9.10;99.90;;;;;;5053966;28;20044;-72
2022/04/07 00:15:56;;;;;;;;;;;9.10;99.90;;;;;;5055445;28;20130;-72
2022/04/07 00:18:22;;;;;;;16.27;2.85;;;9.20;99.90;;;;;;5071882;28;20011;-72
2022/04/07 00:20:48;;;;;;;16.25;2.85;;;9.20;99.90;;;;;;5054629;28;20095;-72
2022/04/07 00:23:14;;;;;;;;;;;9.20;99.90;;;;;;5073020;28;20040;-72
2022/04/07 00:25:39;;;;;;;9.07;2.70;;;9.10;99.90;;;;;;5054038;28;20390;-72
2022/04/07 00:28:05;;;;;;;;;;;9.20;99.90;;;;;;5071713;28;20404;-72
2022/04/07 00:30:31;;;;;;;15.90;3.17;;;9.20;99.90;;;;;;5072622;28;19921;-72
2022/04/07 00:32:56;;;;;;;;;;;9.10;99.90;;;;;;5072534;28;20523;-72
2022/04/07 00:35:24;;;;;;;13.68;2.63;;;9.10;99.90;;;;;;5071642;28;20277;-72
2022/04/07 00:37:50;;;;;;;17.98;3.10;;;9.10;99.90;;;;;;5072212;28;20464;-72
2022/04/07 00:40:17;;;;;;;;;;;9.20;99.90;;;;;;5072809;28;20123;-72
2022/04/07 00:42:44;;;;;;;13.73;3.17;;;9.20;99.90;;;;;;5071309;28;20014;-72
2022/04/07 00:45:10;;;;;;;15.43;3.15;;;9.20;99.90;;;;;;5072595;28;20560;-72
2022/04/07 00:47:36;;;;;;;;;;;9.20;99.90;;;;;;5072168;28;20123;-72
2022/04/07 00:50:02;;;;;;;14.80;3.85;;;9.20;99.90;;;;;;5072710;28;19927;-72
2022/04/07 00:52:30;;;;;;;13.30;2.70;;;9.10;99.90;;;;;;5072609;28;20546;-72
2022/04/07 00:54:57;;;;;;;16.10;4.53;;;9.20;99.90;;;;;;5053340;28;20090;-72
2022/04/07 00:57:23;;;;;;;14.90;3.63;;;9.20;99.90;;;;;;5072375;28;20428;-72
2022/04/07 00:59:49;;;;;;;17.35;3.13;;;9.20;99.90;;;;;;5072036;28;20412;-72
2022/04/07 01:02:14;;;;;;;;;;;9.10;99.90;;;;;;5072214;28;20055;-72
2022/04/07 01:04:41;;;;;;;15.05;4.28;;;9.20;99.90;;;;;;5071765;28;20390;-72
2022/04/07 01:07:07;;;;;;;15.55;3.30;;;9.10;99.90;;;;;;5072365;28;20287;-72
2022/04/07 01:09:34;;;;;;;12.15;3.20;;;9.10;99.90;;;;;;5052995;28;20498;-72
2022/04/07 01:11:59;;;;;;;14.35;2.83;;;9.20;99.90;;;;;;5072403;28;20075;-72
2022/04/07 01:14:25;;;;;;;;;;;9.20;99.90;;;;;;5053852;28;20117;-71
2022/04/07 01:16:51;;;;;;;16.98;3.60;;;9.30;99.90;;;;;;5071932;28;19924;-72
2022/04/07 01:19:16;;;;;;;16.88;3.38;;;9.20;99.90;;;;;;5071822;28;20044;-72
2022/04/07 01:21:42;;;;;;;;;;;9.20;99.90;;;;;;5072494;28;20036;-72
2022/04/07 01:24:11;;;;;;;12.95;3.05;;;9.20;99.90;;;;;;5053453;28;20376;-73
2022/04/07 01:26:41;;;;;;;22.70;4.05;;;9.20;99.90;;;;;;5071547;28;20480;-73
2022/04/07 01:29:12;;;;;;;15.80;3.80;;;9.20;99.90;;;;;;5071861;28;20178;-73
2022/04/07 01:31:38;;;;;;;16.35;2.80;;;9.30;99.90;;;;;;5071106;28;20045;-73
2022/04/07 01:34:14;;;;;;;18.13;3.85;;;9.30;99.90;;;;;;5071965;28;20040;-73
2022/04/07 01:36:44;;;;;;;14.13;2.92;;;9.20;99.90;;;;;;5053622;28;20044;-73
2022/04/07 01:39:09;;;;;;;14.45;3.63;;;9.10;99.90;;;;;;5075418;28;20093;-73
2022/04/07 01:41:35;;;;;;;;;;;9.10;99.90;;;;;;5075982;28;20044;-73
2022/04/07 01:44:03;;;;;;;11.85;3.08;;;9.00;99.90;;;;;;5075359;28;19920;-73
2022/04/07 01:46:29;;;;;;;15.25;2.83;;;9.10;99.90;;;;;;5056813;28;20041;-74
2022/04/07 01:48:55;;;;;;;20.67;4.32;;;9.10;99.90;;;;;;5057450;28;20075;-73
2022/04/07 01:51:22;;;;;;;11.85;3.22;;;9.20;99.90;;;;;;5074426;28;20377;-73
2022/04/07 01:53:48;;;;;;;15.52;3.20;;;9.30;99.90;;;;;;5057490;28;20488;-70
2022/04/07 01:56:15;;;;;;;;;;;9.20;99.90;;;;;;5075947;28;20040;-71
2022/04/07 01:58:41;;;;;;;14.40;3.42;;;9.20;99.90;;;;;;5074926;28;20324;-71
2022/04/07 02:01:07;;;;;;;17.45;3.70;;;9.20;99.90;;;;;;5074490;28;20048;-71
2022/04/07 02:03:32;;;;;;;;;;;9.20;99.90;;;;;;5057506;28;20503;-71
2022/04/07 02:06:15;;;;;;;20.65;5.20;;;9.20;99.90;;;;;;5056932;28;19971;-72
2022/04/07 02:08:42;;;;;;;19.38;4.13;;;9.10;99.90;;;;;;5074775;28;20411;-72
2022/04/07 02:11:11;;;;;;;17.60;4.65;;;9.20;99.90;;;;;;5075190;28;20067;-72
2022/04/07 02:13:38;;;;;;;15.77;3.95;;;10.20;99.90;;;;;;5073555;28;20566;-72
2022/04/07 02:16:08;;;;;;;20.35;3.50;;;9.10;99.90;;;;;;5057082;28;20044;-72
2022/04/07 02:18:34;;;;;;;22.90;4.00;;;9.10;99.90;;;;;;5056505;28;20094;-72
2022/04/07 02:21:03;;;;;;;18.98;4.03;;;9.10;99.90;;;;;;5074681;28;20052;-72
2022/04/07 02:23:34;;;;;;;19.98;4.22;;;9.10;99.90;;;;;;5055129;28;20052;-72
2022/04/07 02:26:00;;;;;;;18.25;3.42;;;9.10;99.90;;;;;;5092720;28;20044;-72
2022/04/07 02:28:25;;;;;;;;;;;9.10;99.90;;;;;;5095180;28;20124;-71
2022/04/07 02:30:51;;;;;;;13.70;3.03;;;9.10;99.90;;;;;;5094394;28;19955;-72
2022/04/07 02:33:16;;;;;;;;;;;9.10;99.90;;;;;;5075994;28;20502;-71
2022/04/07 02:35:42;;;;;;;11.98;2.65;;;9.10;99.90;;;;;;5074509;28;19926;-72
2022/04/07 02:38:07;;;;;;;;;;;9.10;99.90;;;;;;5056619;28;20047;-72
2022/04/07 02:40:36;;;;;;;16.73;3.47;;;9.10;99.90;;;;;;5073487;28;20399;-71
2022/04/07 02:43:02;;;;;;;12.57;3.15;;;9.10;99.90;;;;;;5056164;28;20072;-72
2022/04/07 02:45:27;;;;;;;;;;;9.00;99.90;;;;;;5070547;28;20063;-72
2022/04/07 02:47:53;;;;;;;14.57;3.05;;;9.10;99.90;;;;;;5093282;28;19920;-72
2022/04/07 02:50:18;;;;;;;;;;;9.10;99.90;;;;;;5094643;28;20048;-72
2022/04/07 02:52:44;;;;;;;18.83;3.35;;;9.10;99.90;;;;;;5094578;28;19920;-72
2022/04/07 02:55:09;;;;;;;;;;;9.10;99.90;;;;;;5094461;28;20054;-72
2022/04/07 02:57:36;;;;;;;18.23;4.40;;;9.00;99.90;;;;;;5101267;28;20015;-73
2022/04/07 03:00:04;;;;;;;14.80;4.05;;;9.10;99.90;;;;;;5055928;28;20105;-71
2022/04/07 03:02:30;;;;;;;20.27;4.38;;;9.00;99.90;;;;;;5072994;28;20131;-71
2022/04/07 03:04:55;;;;;;;;;;;9.10;99.90;;;;;;5056687;28;20119;-72
2022/04/07 03:07:22;;;;;;;16.10;3.40;;;9.20;99.90;;;;;;5073584;28;19973;-75
2022/04/07 03:09:47;;;;;;;12.75;3.13;;;9.90;99.90;;;;;;5072937;28;20132;-71
2022/04/07 03:12:13;;;;;;;;;;;9.10;99.90;;;;;;5056862;28;20486;-72
2022/04/07 03:14:40;;;;;;;13.40;4.13;;;9.10;99.90;;;;;;5061688;28;20035;-73
2022/04/07 03:17:06;;;;;;;11.23;3.13;;;9.30;99.90;;;;;;5054418;28;20037;-73
2022/04/07 03:19:32;;;;;;;17.25;3.15;;;9.20;99.90;;;;;;5053452;28;20411;-73
2022/04/07 03:21:57;;;;;;;;;;;9.30;99.90;;;;;;5036658;28;20135;-73
2022/04/07 03:24:24;;;;;;;14.18;3.25;;;9.20;99.90;;;;;;5052959;28;19920;-72
2022/04/07 03:26:51;;;;;;;17.52;3.08;;;9.20;99.90;;;;;;5036296;28;20099;-71
2022/04/07 03:29:19;;;;;;;21.25;4.68;;;9.40;99.90;;;;;;5049641;28;20187;-71
2022/04/07 03:31:45;;;;;;;19.27;3.75;;;9.20;99.90;;;;;;5073842;28;20048;-72
2022/04/07 03:34:11;;;;;;;;;;;9.30;99.90;;;;;;5073090;28;20060;-72
2022/04/07 03:36:36;;;;;;;15.32;3.40;;;9.20;99.90;;;;;;5072655;28;19925;-71
2022/04/07 03:39:03;;;;;;;;;;;9.20;99.90;;;;;;5039327;28;20427;-71
2022/04/07 03:41:29;;;;;;;19.58;3.10;;;9.20;99.90;;;;;;5055148;28;19916;-71
2022/04/07 03:43:57;;;;;;;;;;;9.20;99.90;;;;;;5063103;28;20045;-72
2022/04/07 03:46:29;;;;;;;19.40;3.40;;;9.20;99.90;;;;;;5035256;28;19920;-72
2022/04/07 03:48:55;;;;;;;17.63;4.60;;;9.30;99.90;;;;;;5053154;28;20048;-72
2022/04/07 03:51:20;;;;;;;;;;;9.20;99.90;;;;;;5035223;28;20049;-72
2022/04/07 03:53:46;;;;;;;19.42;3.15;;;9.10;99.90;;;;;;5053295;28;19921;-73
2022/04/07 03:56:12;;;;;;;;;;;9.10;99.90;;;;;;5053433;28;20514;-72
2022/04/07 03:58:40;;;;;;;23.95;4.07;;;9.10;99.90;;;;;;5053133;28;19936;-73
2022/04/07 04:01:09;;;;;;;22.98;4.68;;;9.00;99.90;;;;;;5034428;28;20068;-73
2022/04/07 04:03:37;;;;;;;22.63;7.45;;;9.00;99.90;;;;;;5052368;28;20049;-73
2022/04/07 04:06:03;;;;;;;;;;;8.90;99.90;;;;;;5035254;28;20040;-72
2022/04/07 04:08:28;;;;;;;19.35;3.50;;;9.00;99.90;;;;;;5052160;28;19920;-72
2022/04/07 04:10:54;;;;;;;;;;;9.00;99.90;;;;;;5053565;28;20393;-73
2022/04/07 04:13:20;;;;;;;18.05;3.75;;;9.00;99.90;;;;;;5051468;28;20015;-73
2022/04/07 04:15:45;;;;;;;;;;;8.90;99.90;;;;;;5053103;28;20049;-73
2022/04/07 04:18:12;;;;;;;26.02;4.05;;;8.90;99.90;;;;;;5052765;28;19928;-73
2022/04/07 04:20:38;;;;;;;22.38;5.38;;;8.90;99.90;;;;;;5033493;28;20064;-73
2022/04/07 04:23:04;;;;;;;15.95;3.53;;;10.00;99.90;;;;;;5035082;28;20534;-73
2022/04/07 04:25:30;;;;;;;;;;;9.00;99.90;;;;;;5052079;28;20045;-73
2022/04/07 04:27:58;;;;;;;24.20;4.47;;;8.90;99.90;;;;;;5051202;28;19920;-73
2022/04/07 04:30:25;;;;;;;;;;;9.00;99.90;;;;;;5049631;28;20055;-72
2022/04/07 04:32:51;;;;;;;27.20;4.90;;;9.00;99.90;;;;;;5050844;28;19921;-73
2022/04/07 04:35:16;;;;;;;;;;;8.90;99.90;;;;;;5051714;28;20114;-73
2022/04/07 04:37:42;;;;;;;25.52;4.95;;;8.90;99.90;;;;;;5051245;28;19936;-73
2022/04/07 04:40:07;;;;;;;;;;;8.80;99.90;;;;;;5052085;28;20043;-72
2022/04/07 04:42:33;;;;;;;23.33;4.45;;;8.80;99.90;;;;;;5051882;28;19921;-73
2022/04/07 04:44:58;;;;;;;;;;;8.80;99.90;;;;;;5049995;28;20163;-73
2022/04/07 04:47:24;;;;;;;26.48;4.35;;;8.80;99.90;;;;;;5051251;28;19920;-72
2022/04/07 04:49:50;;;;;;;;;;;8.70;99.90;;;;;;5034608;28;20139;-73
2022/04/07 04:52:15;;;;;;;11.45;3.58;;;8.60;99.90;;;;;;5034214;28;19928;-71
2022/04/07 04:54:41;;;;;;;;;;;8.40;99.90;;;;;;5052035;28;20167;-71
2022/04/07 04:57:07;;;;;;;15.98;2.80;;;8.20;99.90;;;;;;5034987;28;19932;-73
2022/04/07 04:59:33;;;;;;;13.32;2.70;;;8.00;99.90;;;;;;5051473;28;20048;-71
2022/04/07 05:01:59;;;;;;;12.35;2.60;;;7.90;99.90;;;;;;5052903;28;20102;-71
2022/04/07 05:04:25;;;;;;;;;;;7.80;99.90;;;;;;5072529;28;20040;-71
2022/04/07 05:06:50;;;;;;;12.45;2.22;;;7.70;99.90;;;;;;5072165;28;20375;-71
2022/04/07 05:09:16;;;;;;;;;;;7.60;99.90;;;;;;5053532;28;20051;-71
2022/04/07 05:11:41;;;;;;;9.75;1.70;;;7.30;99.90;;;;;;5056089;28;19920;-70
2022/04/07 05:14:07;;;;;;;;;;;7.30;99.90;;;;;;5076014;28;20092;-70
2022/04/07 05:16:32;;;;;;;5.25;1.42;;;7.20;99.90;;;;;;5057284;28;19928;-70
2022/04/07 05:18:58;;;;;;;;;;;7.10;99.90;;;;;;5076514;28;20044;-70
2022/04/07 05:21:23;;;;;;;6.30;1.70;;;6.90;99.90;;;;;;5075782;28;19923;-70
2022/04/07 05:23:49;;;;;;;;;;;6.80;99.90;;;;;;5075416;28;20041;-70
2022/04/07 05:26:15;;;;;;;9.25;2.10;;;6.70;99.90;;;;;;5075119;28;19966;-70
2022/04/07 05:28:41;;;;;;;;;;;6.60;99.90;;;;;;5075125;28;20124;-70
2022/04/07 05:31:06;;;;;;;10.65;3.35;;;6.60;99.90;;;;;;5075089;28;19927;-69
2022/04/07 05:33:32;;;;;;;;;;;6.60;99.90;;;;;;5056999;28;20472;-69
2022/04/07 05:35:58;;;;;;;8.30;1.65;;;6.50;99.90;;;;;;5056639;28;19920;-70
2022/04/07 05:38:23;;;;;;;;;;;6.40;99.90;;;;;;5057193;28;20055;-70
2022/04/07 05:40:49;;;;;;;8.30;1.80;;;6.40;99.90;;;;;;5075811;28;19916;-70
2022/04/07 05:43:14;;;;;;;;;;;6.30;99.90;;;;;;5056884;28;20044;-71
2022/04/07 05:45:42;;;;;;;12.27;1.80;;;6.20;99.90;;;;;;5075554;28;19920;-70
2022/04/07 05:48:08;;;;;;;5.53;1.23;;;6.20;99.90;;;;;;5075034;28;20067;-70
2022/04/07 05:50:34;;;;;;;5.22;1.58;;;6.20;99.90;;;;;;5055937;28;20085;-70
2022/04/07 05:53:00;;;;;;;;;;;6.10;99.90;;;;;;5075664;28;20111;-71
2022/04/07 05:55:25;;;;;;;5.13;1.15;;;6.10;99.90;;;;;;5075120;28;20015;-70
2022/04/07 05:57:51;;;;;;;;;;;6.10;99.90;;;;;;5074729;28;20044;-70
2022/04/07 06:00:18;;;;;;;5.65;1.88;;;6.10;99.90;;;;;;5056262;28;19940;-71
2022/04/07 06:02:47;;;;;;;5.05;1.05;;;6.10;99.90;;;;;;5057061;28;20500;-71
2022/04/07 06:05:18;;;;;;;5.60;1.40;;;6.10;99.90;;;;;;5056525;28;20044;-71
2022/04/07 06:07:44;;;;;;;4.78;1.80;;;6.00;99.90;;;;;;5074731;28;20094;-69
2022/04/07 06:10:10;;;;;;;5.22;1.23;;;6.00;99.90;;;;;;5074974;28;20071;-70
2022/04/07 06:12:35;;;;;;;;;;;6.00;99.90;;;;;;5056881;28;20052;-69
2022/04/07 06:15:01;;;;;;;6.38;1.40;;;6.00;99.90;;;;;;5090936;28;19920;-70
2022/04/07 06:17:33;;;;;;;;;;;5.90;99.90;;;;;;5074899;28;20052;-70
2022/04/07 06:20:02;;;;;;;8.60;1.48;;;5.90;99.90;;;;;;5074542;28;20352;-71
2022/04/07 06:22:28;;;;;;;7.43;1.45;;;5.90;99.90;;;;;;5073783;28;20049;-71
2022/04/07 06:24:53;;;;;;;;;;;6.00;99.90;;;;;;5075431;28;20041;-72
2022/04/07 06:27:19;;;;;;;8.48;2.60;;;5.90;99.90;;;;;;5056199;28;19920;-71
2022/04/07 06:29:44;;;;;;;;;;;5.90;99.90;;;;;;5075282;28;20132;-71
2022/04/07 06:32:10;;;;;;;4.57;1.50;;;5.90;99.90;;;;;;5073871;28;19965;-71
2022/04/07 06:34:36;;;;;;;;;;;6.00;99.90;;;;;;5056663;28;20049;-69
2022/04/07 06:37:02;;;;;;;8.20;1.58;;;6.00;99.90;;;;;;5056555;28;19925;-69
2022/04/07 06:39:27;;;;;;;;;;;6.10;99.90;;;;;;5046302;28;20064;-71
2022/04/07 06:41:53;;;;;;;6.85;1.60;;;6.10;99.90;;;;;;5055127;28;19995;-73
2022/04/07 06:44:19;;;;;;;;;;;6.10;99.90;;;;;;5074171;28;20154;-72
2022/04/07 06:46:45;;;;;;;9.18;1.67;;;6.10;99.90;;;;;;5073404;28;20007;-72
2022/04/07 06:49:11;;;;;;;5.35;1.15;;;6.10;99.90;;;;;;5073481;28;20408;-71
2022/04/07 06:51:46;;;;;;;5.72;1.33;;;6.20;99.90;;;;;;5055456;28;20463;-71
2022/04/07 06:54:11;;;;;;;9.50;1.67;;;6.20;99.90;;;;;;5072898;28;20618;-71
2022/04/07 06:56:37;;;;;;;;;;;6.30;99.90;;;;;;5073295;28;20119;-70
2022/04/07 06:59:02;;;;;;;9.55;1.70;;;6.30;99.90;;;;;;5079743;28;19920;-69
2022/04/07 07:01:28;;;;;;;;;;;6.40;99.90;;;;;;5071650;28;20057;-71
2022/04/07 07:03:53;;;;;;;6.80;1.45;;;6.40;99.90;;;;;;5058575;28;19920;-71
2022/04/07 07:06:19;;;;;;;;;;;6.50;99.90;;;;;;5037578;28;20051;-71
2022/04/07 07:08:45;;;;;;;8.82;2.17;;;6.50;99.90;;;;;;5056279;28;19927;-71
2022/04/07 07:11:11;;;;;;;;;;;6.50;99.90;;;;;;5051068;28;20610;-70
2022/04/07 07:13:37;;;;;;;10.15;2.05;;;6.50;99.90;;;;;;5038530;28;20011;-70
2022/04/07 07:16:04;;;;;;;7.43;1.42;;;6.50;99.90;;;;;;5068731;28;20037;-70
2022/04/07 07:18:29;;;;;;;5.60;1.42;;;6.50;99.90;;;;;;5055269;28;20368;-71
2022/04/07 07:20:55;;;;;;;;;;;6.60;99.90;;;;;;5060601;28;20119;-70
2022/04/07 07:23:23;;;;;;;4.50;1.45;;;6.90;99.90;;;;;;5034688;28;19925;-73
2022/04/07 07:25:49;;;;;;;;;;;7.20;99.90;;;;;;5045217;28;20036;-75
2022/04/07 07:28:21;;;;;;;7.15;1.52;;;7.30;99.90;;;;;;5053014;28;19927;-77
2022/04/07 07:30:46;;;;;;;9.35;1.70;;;8.00;99.90;;;;;;5052395;28;20057;-74
2022/04/07 07:33:12;;;;;;;;;;;9.00;99.90;;;;;;5039976;28;20113;-72
2022/04/07 07:35:38;;;;;;;9.07;1.55;;;9.90;99.90;;;;;;5070546;28;20732;-70
2022/04/07 07:38:03;;;;;;;;;;;10.80;99.90;;;;;;5073937;28;20513;-72
2022/04/07 07:40:32;;;;;;;9.60;1.60;;;11.50;99.90;;;;;;5072880;28;19999;-70
2022/04/07 07:43:00;;;;;;;7.85;1.80;;;11.50;99.90;;;;;;5072682;28;20544;-69
2022/04/07 07:45:28;;;;;;;4.55;1.52;;;11.60;99.90;;;;;;5054784;28;20052;-69
2022/04/07 07:47:53;;;;;;;4.45;1.83;;;11.90;99.90;;;;;;5055374;28;20041;-70
2022/04/07 07:50:19;;;;;;;;;;;12.00;99.90;;;;;;5052613;28;20403;-71
2022/04/07 07:52:45;;;;;;;9.77;2.10;;;11.80;99.90;;;;;;5053218;28;19928;-73
2022/04/07 07:55:11;;;;;;;;;;;11.20;99.90;;;;;;5052146;28;20045;-72
2022/04/07 07:57:37;;;;;;;9.60;2.80;;;10.70;99.90;;;;;;5046917;28;19925;-75
2022/04/07 08:00:07;;;;;;;7.72;2.17;;;10.40;99.90;;;;;;5043406;28;20040;-72
2022/04/07 08:02:34;;;;;;;11.50;1.58;;;10.30;99.90;;;;;;5059413;28;20435;-74
2022/04/07 08:05:03;;;;;;;6.82;1.75;;;11.00;99.90;;;;;;5068537;28;20396;-73
2022/04/07 08:07:28;;;;;;;7.35;1.25;;;11.20;99.90;;;;;;5039678;28;20044;-71
2022/04/07 08:09:55;;;;;;;;;;;11.30;99.90;;;;;;5041030;28;20049;-71
2022/04/07 08:12:20;;;;;;;7.53;1.63;;;11.40;99.90;;;;;;5064615;28;20368;-71
2022/04/07 08:14:46;;;;;;;;;;;11.80;99.90;;;;;;5039866;28;20127;-70
2022/04/07 08:17:12;;;;;;;6.72;1.58;;;11.20;99.90;;;;;;5052202;28;20024;-72
2022/04/07 08:19:37;;;;;;;;;;;11.00;99.90;;;;;;5058820;28;20102;-71
2022/04/07 08:22:03;;;;;;;9.88;1.90;;;10.80;99.90;;;;;;5053201;28;20007;-71
2022/04/07 08:24:29;;;;;;;11.73;1.98;;;10.40;99.90;;;;;;5034861;28;20407;-72
2022/04/07 08:26:54;;;;;;;;;;;10.30;99.90;;;;;;5033653;28;20053;-72
2022/04/07 08:29:20;;;;;;;7.20;1.70;;;10.50;99.90;;;;;;5052127;28;19971;-73
2022/04/07 08:31:51;;;;;;;6.60;1.52;;;10.90;99.90;;;;;;5034845;28;20046;-73
2022/04/07 08:34:20;;;;;;;6.28;1.65;;;12.00;99.90;;;;;;5034571;28;20092;-72
2022/04/07 08:36:46;;;;;;;10.68;1.60;;;11.50;99.90;;;;;;5053708;28;20112;-71
2022/04/07 08:39:12;;;;;;;8.27;2.03;;;11.20;99.90;;;;;;5051817;28;20480;-73
2022/04/07 08:41:39;;;;;;;;;;;10.90;99.90;;;;;;5052478;28;20084;-72
2022/04/07 08:44:07;;;;;;;4.15;1.45;;;11.10;99.90;;;;;;5034671;28;19925;-73
2022/04/07 08:46:33;;;;;;;;;;;11.20;99.90;;;;;;5033884;28;20051;-75
2022/04/07 08:49:02;;;;;;;9.02;1.85;;;11.30;99.90;;;;;;5034429;28;20323;-72
2022/04/07 08:51:28;;;;;;;10.50;2.00;;;11.40;99.90;;;;;;5052151;28;20045;-71
2022/04/07 08:53:55;;;;;;;9.70;1.67;;;11.30;99.90;;;;;;5067370;28;20055;-71
2022/04/07 08:56:23;;;;;;;11.50;2.17;;;11.40;99.90;;;;;;5069803;28;20041;-70
2022/04/07 08:58:55;;;;;;;6.30;1.60;;;11.60;99.90;;;;;;5053868;28;20048;-71
2022/04/07 09:01:24;;;;;;;10.65;2.28;;;11.60;99.90;;;;;;5053371;28;20048;-71
2022/04/07 09:03:50;;;;;;;8.30;2.67;;;11.70;99.90;;;;;;5070976;28;20487;-71
2022/04/07 09:06:16;;;;;;;;;;;12.50;99.90;;;;;;5072794;28;20060;-71
2022/04/07 09:08:41;;;;;;;7.63;2.13;;;13.30;99.90;;;;;;5069794;28;19928;-70
2022/04/07 09:11:10;;;;;;;7.47;2.40;;;13.40;99.90;;;;;;5054654;28;20131;-71
2022/04/07 09:13:42;;;;;;;7.68;2.20;;;13.00;99.90;;;;;;5071818;28;20044;-72
2022/04/07 09:16:13;;;;;;;10.30;1.92;;;12.40;99.90;;;;;;5071608;28;20045;-71
2022/04/07 09:18:44;;;;;;;14.07;2.45;;;11.80;99.90;;;;;;5053543;28;20052;-71
2022/04/07 09:21:37;;;;;;;7.13;2.10;;;11.30;99.90;;;;;;5052927;28;20049;-71
2022/04/07 09:24:07;;;;;;;9.88;2.45;;;11.10;99.90;;;;;;5023966;28;20088;-70
2022/04/07 09:26:39;;;;;;;7.63;1.98;;;10.80;99.90;;;;;;5043844;28;20482;-69
2022/04/07 09:29:13;;;;;;;7.47;2.55;;;10.50;99.90;;;;;;5056245;28;20079;-69
2022/04/07 09:31:49;;;;;;;6.50;1.67;;;10.20;99.90;;;;;;5049651;28;20123;-69
2022/04/07 09:34:15;;;;;;;7.95;1.85;;;10.10;99.90;;;;;;5039172;28;20044;-70
2022/04/07 09:36:43;;;;;;;7.28;1.60;;;10.20;99.90;;;;;;5059494;28;20041;-70
2022/04/07 09:39:08;;;;;;;17.35;2.70;;;11.30;99.90;;;;;;5046444;28;20052;-71
2022/04/07 09:41:36;;;;;;;;;;;11.60;99.90;;;;;;5034488;28;20540;-70
2022/04/07 09:44:01;;;;;;;7.72;1.90;;;11.90;99.90;;;;;;5048552;28;19927;-70
2022/04/07 09:46:34;;;;;;;;;;;11.60;99.90;;;;;;5062193;28;20044;-71
2022/04/07 09:49:12;;;;;;;7.93;2.20;;;11.40;99.90;;;;;;5043762;28;20350;-71
2022/04/07 09:51:46;;;;;;;7.97;1.77;;;11.00;99.90;;;;;;5066840;28;20147;-70
2022/04/07 09:54:16;;;;;;;10.48;2.20;;;10.70;99.90;;;;;;5058629;28;20041;-70
2022/04/07 09:56:43;;;;;;;9.70;2.08;;;10.60;99.90;;;;;;5060159;28;20428;-71
2022/04/07 09:59:10;;;;;;;9.32;2.13;;;10.40;99.90;;;;;;5056455;28;20045;-71
2022/04/07 10:01:40;;;;;;;10.02;2.10;;;10.30;99.90;;;;;;5066626;28;20052;-70
2022/04/07 10:04:08;;;;;;;13.20;3.25;;;10.10;99.90;;;;;;5085203;28;20062;-71
2022/04/07 10:06:34;;;;;;;9.63;2.45;;;10.00;99.90;;;;;;5066532;28;20575;-71
2022/04/07 10:09:02;;;;;;;14.07;2.63;;;10.10;99.90;;;;;;5080525;28;20492;-69
2022/04/07 10:11:42;;;;;;;12.18;2.53;;;10.10;99.90;;;;;;5090690;28;20047;-73
2022/04/07 10:14:10;;;;;;;11.00;2.33;;;9.90;99.90;;;;;;5081158;28;20127;-73
2022/04/07 10:16:36;;;;;;;13.30;2.40;;;9.80;99.90;;;;;;5084664;28;20105;-72
2022/04/07 10:19:13;;;;;;;;;;;9.90;99.90;;;;;;5078022;28;20476;-72
2022/04/07 10:21:48;;;;;;;13.90;2.70;;;10.10;99.90;;;;;;5069274;28;19920;-73
2022/04/07 10:24:19;;;;;;;9.43;3.10;;;10.10;99.90;;;;;;5075771;28;20110;-72
2022/04/07 10:26:47;;;;;;;9.75;2.10;;;9.70;99.90;;;;;;5055880;28;20047;-73
2022/04/07 10:29:22;;;;;;;10.80;2.42;;;9.90;99.90;;;;;;5064110;28;20040;-74
2022/04/07 10:32:10;;;;;;;7.80;2.00;;;9.80;99.90;;;;;;5074875;28;20132;-73
2022/04/07 10:34:42;;;;;;;9.40;2.35;;;9.80;99.90;;;;;;5073677;28;20131;-72
2022/04/07 10:37:09;;;;;;;11.48;2.58;;;9.70;99.90;;;;;;5074586;28;20067;-75
2022/04/07 10:39:39;;;;;;;15.38;2.22;;;9.80;99.90;;;;;;5070899;28;20040;-75
2022/04/07 10:42:05;;;;;;;12.63;2.63;;;10.50;99.90;;;;;;5074372;28;20438;-74
2022/04/07 10:44:33;;;;;;;;;;;11.20;99.90;;;;;;5072722;28;20041;-73
2022/04/07 10:47:03;;;;;;;12.65;2.17;;;11.90;99.90;;;;;;5074590;28;19993;-76
2022/04/07 10:49:30;;;;;;;12.63;2.50;;;12.60;99.90;;;;;;5055715;28;20048;-74
2022/04/07 10:51:57;;;;;;;12.05;3.13;;;12.80;99.90;;;;;;5056413;28;20121;-73
2022/04/07 10:54:26;;;;;;;10.65;2.50;;;13.00;99.90;;;;;;5072889;28;20490;-75
2022/04/07 10:56:56;;;;;;;12.93;3.70;;;12.50;99.90;;;;;;5070870;28;20040;-72
2022/04/07 10:59:27;;;;;;;10.45;2.33;;;11.70;99.90;;;;;;5059139;28;20045;-74
2022/04/07 11:02:15;;;;;;;7.35;1.95;;;11.20;99.90;;;;;;5043845;28;20064;-74
2022/04/07 11:04:58;;;;;;;8.82;2.10;;;11.00;99.90;;;;;;5031366;28;20069;-73
2022/04/07 11:07:24;;;;;;;12.63;2.75;;;10.90;99.90;;;;;;5016976;28;20041;-74
2022/04/07 11:09:54;;;;;;;;;;;10.90;99.90;;;;;;5034097;28;20377;-75
2022/04/07 11:12:34;;;;;;;14.18;2.30;;;10.90;99.90;;;;;;5053433;28;20023;-73
2022/04/07 11:15:06;;;;;;;8.63;2.25;;;10.90;99.90;;;;;;5053097;28;20115;-71
2022/04/07 11:17:37;;;;;;;9.00;2.60;;;12.40;99.90;;;;;;5053582;28;20120;-73
2022/04/07 11:20:19;;;;;;;13.35;2.67;;;11.60;99.90;;;;;;5038441;28;20170;-74
2022/04/07 11:22:49;;;;;;;11.52;2.58;;;11.90;99.90;;;;;;5073150;28;20507;-74
2022/04/07 11:25:28;;;;;;;9.02;2.10;;;12.20;99.90;;;;;;5052698;28;20431;-75
2022/04/07 11:28:17;;;;;;;12.93;3.00;;;12.70;99.90;;;;;;5038541;28;20106;-72
2022/04/07 11:30:47;;;;;;;8.50;2.38;;;12.40;99.90;;;;;;5052050;28;20076;-74
2022/04/07 11:33:18;;;;;;;11.65;2.28;;;12.30;99.90;;;;;;5034806;28;20433;-73
2022/04/07 11:35:59;;;;;;;9.57;2.03;;;12.00;99.90;;;;;;5035189;28;20063;-71
2022/04/07 11:38:42;;;;;;;11.70;2.53;;;11.60;99.90;;;;;;5052640;28;20077;-72
2022/04/07 11:41:13;;;;;;;8.20;1.90;;;11.20;99.90;;;;;;5037312;28;20401;-74
2022/04/07 11:43:46;;;;;;;7.32;2.63;;;10.80;99.90;;;;;;5051480;28;20433;-72
2022/04/07 11:46:27;;;;;;;9.55;1.95;;;10.50;99.90;;;;;;5034385;28;20045;-74
2022/04/07 11:48:55;;;;;;;10.00;2.30;;;10.10;99.90;;;;;;5033697;28;20492;-74
2022/04/07 11:51:24;;;;;;;7.45;1.75;;;9.60;99.90;;;;;;5052124;28;20546;-77
2022/04/07 11:53:52;;;;;;;10.80;2.15;;;9.50;99.90;;;;;;5052465;28;20041;-77
2022/04/07 11:56:25;;;;;;;6.03;1.90;;;9.70;99.90;;;;;;5051302;28;20049;-81
2022/04/07 11:58:59;;;;;;;12.82;2.47;;;10.20;99.90;;;;;;5051151;28;20388;-76
2022/04/07 12:01:25;;;;;;;9.95;2.97;;;10.70;99.90;;;;;;5036633;28;20064;-74
2022/04/07 12:03:52;;;;;;;;;;;10.60;99.90;;;;;;5052246;28;20091;-73
2022/04/07 12:06:24;;;;;;;8.20;2.05;;;10.60;99.90;;;;;;5033517;28;20462;-75
2022/04/07 12:08:51;;;;;;;5.35;1.98;;;10.30;99.90;;;;;;5034265;28;20381;-74
2022/04/07 12:11:20;;;;;;;5.53;1.60;;;10.40;99.90;;;;;;5033904;28;20045;-73
2022/04/07 12:13:50;;;;;;;7.75;1.77;;;10.50;99.90;;;;;;5034749;28;20049;-74
2022/04/07 12:16:16;;;;;;;11.32;2.13;;;11.10;99.90;;;;;;5034845;28;20389;-75
2022/04/07 12:18:55;;;;;;;8.30;2.30;;;11.70;99.90;;;;;;5069564;28;20395;-73
2022/04/07 12:21:23;;;;;;;7.93;2.15;;;12.50;99.90;;;;;;5054133;28;20399;-77
2022/04/07 12:24:14;;;;;;;8.80;2.38;;;12.50;99.90;;;;;;5048409;28;20136;-74
2022/04/07 12:26:44;;;;;;;7.75;2.53;;;12.30;99.90;;;;;;5052656;28;20480;-72
2022/04/07 12:29:14;;;;;;;5.43;1.50;;;11.70;99.90;;;;;;5029169;28;20052;-73
2022/04/07 12:31:41;;;;;;;6.32;1.60;;;11.30;99.90;;;;;;5028015;28;20045;-72
2022/04/07 12:34:08;;;;;;;9.43;2.33;;;10.80;99.90;;;;;;5067846;28;20048;-74
2022/04/07 12:36:37;;;;;;;6.82;2.17;;;11.20;99.90;;;;;;5044443;28;20049;-73
2022/04/07 12:39:11;;;;;;;10.25;3.05;;;11.90;99.90;;;;;;5050614;28;20124;-73
2022/04/07 12:41:43;;;;;;;10.48;2.78;;;11.90;99.90;;;;;;5054084;28;20124;-75
2022/04/07 12:44:10;;;;;;;7.28;2.20;;;11.50;99.90;;;;;;5036839;28;20103;-74
2022/04/07 12:46:49;;;;;;;6.60;3.00;;;10.80;99.90;;;;;;5051718;28;20051;-75
2022/04/07 12:49:37;;;;;;;10.02;2.55;;;10.00;99.90;;;;;;5055567;28;20123;-73
2022/04/07 12:52:18;;;;;;;6.38;1.65;;;9.40;99.90;;;;;;5021084;28;20106;-80
2022/04/07 12:55:19;;;;;;;7.43;1.95;;;8.70;99.90;;;;;;5043097;28;20072;-75
2022/04/07 12:57:46;;;;;;;9.10;2.67;;;8.20;99.90;;;;;;4991147;28;20038;-75
2022/04/07 13:00:18;;;;;;;11.90;2.00;;;7.90;99.90;;;;;;5039681;28;20059;-74
2022/04/07 13:02:49;;;;;;;10.38;4.18;;;7.90;99.90;;;;;;5051651;28;20045;-73
2022/04/07 13:05:21;;;;;;;10.75;2.58;;;7.90;99.90;;;;;;5052484;28;20060;-73
2022/04/07 13:07:47;;;;;;;9.80;2.75;;;7.90;99.90;;;;;;5052904;28;20506;-73
2022/04/07 13:10:12;;;;;;;;;;;7.80;99.90;;;;;;5037407;28;20044;-72
2022/04/07 13:12:41;;;;;;;4.60;2.13;;;7.80;99.90;;;;;;5032708;28;19927;-72
2022/04/07 13:15:07;;;;;;;3.40;1.20;;;7.70;99.90;;;;;;5054081;28;20400;-76